KALO/ALO METAR and TAF weather

Enter ICAO airport designator
Station Type Date Time Source
KALO METAR 2018/01/21 11:54 UTC NOAA

KALO 211154Z 06004KT 3SM BR OVC029 01/00 A2991 RMK AO2 SLP136 I6001 T00060000 10006 21039 56008


Station Type Date Time Source
KALO Decoded METAR 2018/01/21 11:54 UTC NOAA

WATERLOO MUNICIPAL AIRPORT, IA, United States (KALO) 42-33N 92-24W 264M
Jan 21, 2018 - 06:54 AM EST / 2018.01.21 1154 UTC
Wind: from the ENE (060 degrees) at 5 MPH (4 KT):0
Visibility: 3 mile(s):0
Sky conditions: overcast
Weather: mist
Temperature: 33.1 F (0.6 C)
Windchill: 28 F (-2 C):1
Dew Point: 32.0 F (0.0 C)
Relative Humidity: 95%
Pressure (altimeter): 29.91 in. Hg (1012 hPa)
Pressure tendency: 0.02 inches (0.8 hPa) lower than three hours ago
ob: KALO 211154Z 06004KT 3SM BR OVC029 01/00 A2991 RMK AO2 SLP136 I6001 T00060000 10006 21039 56008
cycle: 12

Station Type Date Time Source
KALO TAF 2018/01/21 12:42 UTC NOAA

TAF KALO 211139Z 2112/2212 06005KT 4SM BR OVC035
FM211300 06006KT 4SM BR OVC025
FM211600 06007KT 2SM BR VCSH OVC018
FM212100 05008KT 2SM BR VCSH OVC006
FM220100 06009KT 2SM -RA BR OVC005
FM220400 05012G19KT 2SM -RA BR OVC005
FM221100 06016G25KT 2SM RA BR OVC005


Example: see airport list